TimeCST,TemperatureF,Dew PointF,Humidity,Sea Level PressureIn,VisibilityMPH,Wind Direction,Wind SpeedMPH,Gust SpeedMPH,PrecipitationIn,Events,Conditions,WindDirDegrees,DateUTC
12:53 AM,14.0,10.0,84,30.40,10.0,NNE,4.6,-,N/A,,Clear,30,2013-01-15 06:53:00
1:53 AM,15.1,12.0,88,30.38,10.0,NE,6.9,-,N/A,,Clear,50,2013-01-15 07:53:00
2:53 AM,15.8,12.2,86,30.33,10.0,NE,6.9,-,N/A,,Clear,50,2013-01-15 08:53:00
3:53 AM,17.6,12.2,79,30.31,10.0,ENE,8.1,-,N/A,,Clear,70,2013-01-15 09:53:00
4:53 AM,16.0,12.9,88,30.33,10.0,ENE,8.1,-,N/A,,Clear,60,2013-01-15 10:53:00
5:53 AM,14.0,10.4,86,30.31,10.0,NE,4.6,-,N/A,,Clear,40,2013-01-15 11:53:00
6:53 AM,12.9,10.0,88,30.37,10.0,NE,4.6,-,N/A,,Clear,50,2013-01-15 12:53:00
7:53 AM,15.1,12.0,88,30.36,10.0,NE,8.1,-,N/A,,Clear,40,2013-01-15 13:53:00
8:53 AM,19.0,15.1,85,30.33,10.0,ENE,11.5,-,N/A,,Clear,60,2013-01-15 14:53:00
9:53 AM,19.9,15.1,81,30.35,10.0,East,9.2,-,N/A,,Clear,80,2013-01-15 15:53:00
10:53 AM,21.0,15.1,78,30.36,10.0,NE,5.8,-,N/A,,Mostly Cloudy,50,2013-01-15 16:53:00
11:53 AM,21.9,14.0,72,30.30,10.0,ENE,6.9,-,N/A,,Mostly Cloudy,60,2013-01-15 17:53:00
12:53 PM,25.0,17.1,72,30.30,10.0,North,3.5,-,N/A,,Overcast,350,2013-01-15 18:53:00
1:53 PM,26.1,17.1,69,30.27,10.0,NNE,6.9,-,N/A,,Mostly Cloudy,20,2013-01-15 19:53:00
2:53 PM,26.1,17.1,69,30.25,10.0,North,9.2,-,N/A,,Overcast,360,2013-01-15 20:53:00
3:53 PM,25.0,17.1,72,30.25,10.0,North,9.2,-,N/A,,Overcast,10,2013-01-15 21:53:00
4:53 PM,25.0,19.0,78,30.22,10.0,North,6.9,-,N/A,,Overcast,10,2013-01-15 22:53:00
5:53 PM,25.0,19.0,78,30.24,10.0,Calm,Calm,-,N/A,,Overcast,0,2013-01-15 23:53:00
6:53 PM,25.0,19.9,81,30.22,10.0,NNW,5.8,-,N/A,,Overcast,330,2013-01-16 00:53:00
7:53 PM,24.1,19.0,81,30.23,10.0,NNW,3.5,-,N/A,,Overcast,330,2013-01-16 01:53:00
8:53 PM,24.1,19.0,81,30.21,10.0,Calm,Calm,-,N/A,,Overcast,0,2013-01-16 02:53:00
9:53 PM,19.0,16.0,88,30.20,10.0,Calm,Calm,-,N/A,,Clear,0,2013-01-16 03:53:00
10:53 PM,18.0,15.1,88,30.17,10.0,Calm,Calm,-,N/A,,Clear,0,2013-01-16 04:53:00
11:53 PM,18.0,14.0,84,30.18,10.0,WNW,3.5,-,N/A,,Clear,290,2013-01-16 05:53:00